Data for 09/13/2014

Time Sea-Level Adjusted Pressure Absolute Pressure Temperature Relative Humidity Dew Point   
(mb) (inHg) (mb) (inHg) (C) (F) (%) (C) (F)
00:05 1021 30.15 850 25.1 5.1 41.2 61 -1.8 28.8
00:10 1021 30.15 850 25.1 5.2 41.4 60 -1.9 28.5
00:15 1021 30.15 851 25.13 5.5 42 60 -1.6 29.2
00:20 1021 30.15 851 25.13 5.2 41.4 62 -1.4 29.4
00:25 1021 30.15 851 25.13 5 41 61 -1.9 28.6
00:30 1021 30.15 851 25.13 5.1 41.1 61 -1.8 28.8
00:35 1022 30.18 851 25.13 4.9 40.7 63 -1.5 29.3
00:40 1022 30.18 851 25.13 4.6 40.2 65 -1.5 29.4
00:45 1022 30.18 851 25.13 4.3 39.7 66 -1.5 29.2
00:50 1022 30.18 851 25.13 4.3 39.7 65 -1.8 28.8
00:55 1022 30.18 851 25.13 4.4 40 64 -1.8 28.8
01:00 1022 30.18 851 25.13 4.4 39.8 64 -1.8 28.7
01:05 1022 30.18 851 25.13 4.1 39.4 65 -1.9 28.6
01:10 1022 30.18 851 25.13 4.1 39.3 65 -2 28.5
01:15 1022 30.18 851 25.13 4 39.2 66 -1.8 28.7
01:20 1022 30.18 851 25.13 4 39.2 65 -2.1 28.3
01:25 1022 30.18 851 25.13 4.1 39.3 64 -2.2 28
01:30 1022 30.18 851 25.13 4.2 39.6 62 -2.4 27.7
01:35 1022 30.18 851 25.13 4.4 39.8 62 -2.3 27.8
01:40 1022 30.18 851 25.13 4.4 39.9 62 -2.2 28
01:45 1022 30.18 851 25.13 4.4 40 62 -2.3 27.8
01:50 1022 30.18 851 25.13 4.4 39.9 62 -2.3 27.8
01:55 1022 30.18 851 25.13 4.3 39.7 62 -2.4 27.6
02:00 1022 30.18 851 25.13 4 39.3 64 -2.1 28.2
02:05 1022 30.18 851 25.13 3.7 38.7 65 -2.3 27.8
02:10 1022 30.18 851 25.13 3.6 38.4 66 -2.3 27.9
02:15 1022 30.18 851 25.13 3.5 38.3 65 -2.5 27.5
02:20 1022 30.18 851 25.13 3.7 38.6 65 -2.3 27.8
02:25 1022 30.18 851 25.13 3.4 38.2 66 -2.4 27.7
02:30 1022 30.18 851 25.13 3.5 38.2 63 -2.9 26.8
02:35 1022 30.18 851 25.13 3.9 39 61 -2.8 26.9
02:40 1022 30.18 851 25.13 4 39.2 63 -2.5 27.6
02:45 1022 30.18 851 25.13 3.7 38.7 63 -2.6 27.4
02:50 1022 30.18 851 25.13 3.5 38.2 65 -2.5 27.5
02:55 1022 30.18 852 25.16 3.2 37.8 66 -2.5 27.5
03:00 1022 30.18 852 25.16 3.1 37.6 66 -2.7 27.2
03:05 1022 30.18 852 25.16 3 37.5 66 -2.6 27.3
03:10 1022 30.18 851 25.13 2.9 37.2 67 -2.6 27.3
03:15 1022 30.18 852 25.16 2.7 36.9 68 -2.7 27.2
03:20 1022 30.18 852 25.16 2.6 36.7 68 -2.7 27.1
03:25 1022 30.18 852 25.16 2.6 36.6 67 -2.8 26.9
03:30 1022 30.18 852 25.16 2.7 36.8 67 -2.8 26.9
03:35 1022 30.18 852 25.16 2.7 36.9 67 -2.9 26.8
03:40 1023 30.21 852 25.16 2.7 36.8 69 -2.5 27.5
03:45 1023 30.21 852 25.16 2.3 36.2 70 -2.7 27.2
03:50 1023 30.21 852 25.16 2.2 36 70 -2.7 27.2
03:55 1023 30.21 852 25.16 2.1 35.9 71 -2.6 27.3
04:00 1023 30.21 852 25.16 2.1 35.7 72 -2.5 27.4
04:05 1023 30.21 852 25.16 2 35.5 71 -2.7 27.2
04:10 1023 30.21 852 25.16 2.1 35.7 71 -2.7 27.1
04:15 1023 30.21 852 25.16 2.1 35.8 68 -3.2 26.3
04:20 1023 30.21 852 25.16 2.5 36.5 66 -3.2 26.3
04:25 1023 30.21 852 25.16 2.5 36.6 67 -3 26.7
04:30 1023 30.21 852 25.16 2.4 36.2 69 -2.7 27.1
04:35 1023 30.21 852 25.16 2 35.6 70 -2.9 26.8
04:40 1023 30.21 852 25.16 1.8 35.2 70 -3.1 26.4
04:45 1023 30.21 852 25.16 1.9 35.4 69 -3.2 26.2
04:50 1023 30.21 852 25.16 2 35.5 68 -3.2 26.2
04:55 1023 30.21 852 25.16 2.1 35.8 68 -3.2 26.3
05:00 1023 30.21 852 25.16 2 35.6 68 -3.3 26.1
05:05 1023 30.21 852 25.16 2.1 35.8 67 -3.3 26.1
05:10 1023 30.21 852 25.16 2.1 35.8 68 -3.1 26.4
05:15 1023 30.21 852 25.16 1.8 35.2 70 -3.1 26.3
05:20 1023 30.21 852 25.16 1.7 35.1 69 -3.4 25.9
05:25 1023 30.21 852 25.16 1.8 35.2 69 -3.2 26.2
05:30 1023 30.21 852 25.16 1.7 35 70 -3.2 26.2
05:35 1023 30.21 853 25.19 1.5 34.6 70 -3.3 26
05:40 1023 30.21 853 25.19 1.4 34.5 71 -3.3 26
05:45 1023 30.21 853 25.19 1.4 34.6 69 -3.6 25.6
05:50 1024 30.24 853 25.19 1.6 34.9 69 -3.5 25.7
05:55 1024 30.24 853 25.19 1.6 35 69 -3.4 25.8
06:00 1024 30.24 853 25.19 1.4 34.6 70 -3.5 25.7
06:05 1024 30.24 853 25.19 1.4 34.5 69 -3.7 25.3
06:10 1024 30.24 853 25.19 1.6 35 68 -3.6 25.5
06:15 1024 30.24 853 25.19 1.6 34.8 69 -3.5 25.7
06:20 1024 30.24 853 25.19 1.5 34.8 68 -3.7 25.4
06:25 1024 30.24 853 25.19 1.7 35 67 -3.8 25.2
06:30 1024 30.24 853 25.19 1.9 35.4 65 -3.9 25
06:35 1024 30.24 853 25.19 2.1 35.8 65 -3.8 25.2
06:40 1024 30.24 853 25.19 2.2 35.9 65 -3.8 25.2
06:45 1024 30.24 853 25.19 2.2 36 64 -4 24.8
06:50 1024 30.24 853 25.19 2.5 36.5 62 -4 24.8
06:55 1024 30.24 853 25.19 2.9 37.2 62 -3.7 25.4
07:00 1024 30.24 853 25.19 3.1 37.7 60 -3.9 25
07:05 1024 30.24 853 25.19 3.2 37.8 60 -3.8 25.1
07:10 1024 30.24 853 25.19 3.4 38.2 59 -3.7 25.3
07:15 1024 30.24 853 25.19 3.7 38.7 58 -3.7 25.4
07:20 1024 30.24 853 25.19 4 39.2 58 -3.4 25.8
07:25 1024 30.24 853 25.19 4.4 40 56 -3.5 25.8
07:30 1024 30.24 853 25.19 4.7 40.4 58 -2.9 26.8
07:35 1024 30.24 853 25.19 5 41.1 56 -2.9 26.7
07:40 1024 30.24 853 25.19 4.9 40.9 57 -2.9 26.8
07:45 1024 30.24 853 25.19 5.2 41.4 56 -2.9 26.8
07:50 1024 30.24 854 25.22 5.1 41.1 59 -2.3 27.9
07:55 1024 30.24 854 25.22 5 41.1 60 -2.2 28.1
08:00 1024 30.24 854 25.22 5.2 41.4 60 -1.9 28.5
08:05 1024 30.24 854 25.22 5.8 42.4 58 -1.9 28.5
08:10 1024 30.24 854 25.22 6.6 43.8 56 -1.6 29.1
08:15 1024 30.24 854 25.22 6.5 43.6 57 -1.3 29.6
08:20 1024 30.24 854 25.22 6.5 43.6 56 -1.5 29.2
08:25 1024 30.24 854 25.22 6 42.9 59 -1.3 29.7
08:30 1024 30.24 854 25.22 6.3 43.4 57 -1.5 29.3
08:35 1024 30.24 854 25.22 6.8 44.3 56 -1.4 29.4
08:40 1025 30.27 854 25.22 7.4 45.4 53 -1.4 29.5
08:45 1024 30.24 854 25.22 7.7 45.9 53 -1.3 29.6
08:50 1024 30.24 854 25.22 8.1 46.6 51 -1.3 29.6
08:55 1024 30.24 854 25.22 7.9 46.2 52 -1.3 29.7
09:00 1024 30.24 854 25.22 7.4 45.3 54 -1.4 29.6
09:05 1024 30.24 853 25.19 8.1 46.7 50 -1.5 29.2
09:10 1024 30.24 853 25.19 8 46.4 53 -1 30.1
09:15 1024 30.24 853 25.19 8.3 46.9 50 -1.6 29.1
09:20 1024 30.24 853 25.19 8 46.4 53 -1 30.2
09:25 1024 30.24 853 25.19 8.3 47 53 -0.8 30.6
09:30 1024 30.24 853 25.19 7.7 45.9 53 -1.3 29.7
09:35 1024 30.24 853 25.19 7.9 46.2 50 -2 28.4
09:40 1024 30.24 853 25.19 8.6 47.6 49 -1.5 29.3
09:45 1024 30.24 853 25.19 8.9 48 48 -1.5 29.3
09:50 1024 30.24 853 25.19 9 48.2 47 -1.6 29.2
09:55 1024 30.24 853 25.19 8.9 48 49 -1.2 29.8
10:00 1024 30.24 853 25.19 9.3 48.8 46 -1.7 29
10:05 1024 30.24 853 25.19 9.7 49.4 45 -1.7 29
10:10 1024 30.24 853 25.19 9.9 49.8 46 -1.1 30.1
10:15 1024 30.24 853 25.19 10 50 43 -1.9 28.6
10:20 1024 30.24 853 25.19 10.1 50.2 45 -1.4 29.5
10:25 1024 30.24 853 25.19 10.1 50.2 43 -1.8 28.8
10:30 1024 30.24 853 25.19 9.7 49.5 43 -2.2 28.1
10:35 1024 30.24 853 25.19 9.6 49.3 44 -2 28.4
10:40 1024 30.24 853 25.19 9.8 49.6 44 -1.9 28.7
10:45 1024 30.24 853 25.19 9.5 49.2 46 -1.5 29.3
10:50 1024 30.24 853 25.19 10 50 44 -1.8 28.7
10:55 1024 30.24 853 25.19 9.9 49.8 44 -1.7 28.9
11:00 1023 30.21 853 25.19 10.2 50.4 42 -2 28.4
11:05 1023 30.21 853 25.19 10.9 51.6 41 -1.9 28.7
11:10 1023 30.21 853 25.19 10.6 51 42 -1.7 28.9
11:15 1023 30.21 852 25.16 10.7 51.3 39 -2.5 27.6
11:20 1023 30.21 852 25.16 10.7 51.3 40 -2.4 27.7
11:25 1023 30.21 852 25.16 10.3 50.6 41 -2.4 27.7
11:30 1023 30.21 852 25.16 9.6 49.3 43 -2.3 27.9
11:35 1023 30.21 852 25.16 9.5 49.1 41 -2.9 26.7
11:40 1023 30.21 852 25.16 10.3 50.5 39 -3 26.7
11:45 1023 30.21 852 25.16 10.5 51 42 -1.8 28.8
11:50 1023 30.21 852 25.16 10.5 50.9 41 -2.2 28.1
11:55 1023 30.21 852 25.16 10.9 51.7 40 -2.2 28
12:00 1023 30.21 852 25.16 11 51.7 38 -2.7 27.2
12:05 1023 30.21 852 25.16 11.5 52.7 39 -2 28.4
12:10 1023 30.21 852 25.16 11.4 52.5 40 -1.5 29.2
12:15 1022 30.18 852 25.16 11.8 53.3 38 -1.9 28.5
12:20 1022 30.18 852 25.16 12 53.5 38 -1.7 28.9
12:25 1022 30.18 852 25.16 12.5 54.4 38 -1.5 29.3
12:30 1022 30.18 852 25.16 12.6 54.7 38 -1.4 29.5
12:35 1022 30.18 852 25.16 13 55.4 36 -1.7 29
12:40 1022 30.18 852 25.16 12.4 54.3 39 -1.1 30
12:45 1022 30.18 852 25.16 12.3 54.2 40 -0.9 30.4
12:50 1022 30.18 851 25.13 12.4 54.3 39 -1.2 29.8
12:55 1022 30.18 851 25.13 12.3 54.2 40 -0.9 30.4
13:00 1022 30.18 851 25.13 11.6 52.9 40 -1.3 29.6
13:05 1022 30.18 851 25.13 11.9 53.5 39 -1.5 29.3
13:10 1022 30.18 851 25.13 12.7 54.9 37 -1.5 29.3
13:15 1022 30.18 851 25.13 12.4 54.3 39 -1 30.1
13:20 1022 30.18 851 25.13 11.6 52.8 41 -1.1 30
13:25 1022 30.18 851 25.13 11.2 52.2 40 -1.7 28.9
13:30 1022 30.18 851 25.13 11.8 53.3 39 -1.5 29.3
13:35 1022 30.18 851 25.13 12.6 54.7 38 -1.2 29.8
13:40 1022 30.18 851 25.13 12.6 54.6 40 -0.8 30.6
13:45 1022 30.18 851 25.13 12.2 54 39 -1.1 30
13:50 1021 30.15 851 25.13 13 55.4 36 -1.8 28.8
13:55 1022 30.18 851 25.13 13.4 56.1 37 -1.1 30.1
14:00 1021 30.15 851 25.13 12.9 55.1 39 -0.8 30.6
14:05 1021 30.15 850 25.1 12.2 53.9 38 -1.5 29.3
14:10 1021 30.15 851 25.13 12.8 55 39 -0.8 30.6
14:15 1021 30.15 850 25.1 13.2 55.8 37 -1.1 30
14:20 1021 30.15 850 25.1 13.5 56.4 37 -0.9 30.3
14:25 1021 30.15 850 25.1 13.7 56.7 36 -1 30.2
14:30 1021 30.15 850 25.1 13.4 56.1 36 -1.1 30
14:35 1021 30.15 850 25.1 13.2 55.7 37 -1.2 29.8
14:40 1021 30.15 850 25.1 13.4 56.1 36 -1.3 29.6
14:45 1021 30.15 850 25.1 14 57.2 35 -1.2 29.8
14:50 1021 30.15 850 25.1 14.4 58 34 -1.3 29.6
14:55 1021 30.15 850 25.1 14.6 58.3 33 -1.3 29.7
15:00 1021 30.15 850 25.1 15 58.9 33 -1.1 30
15:05 1021 30.15 850 25.1 15 59 33 -0.9 30.4
15:10 1021 30.15 850 25.1 14.7 58.4 35 -0.4 31.2
15:15 1021 30.15 850 25.1 14.8 58.7 34 -1 30.2
15:20 1021 30.15 850 25.1 15.1 59.1 34 -0.6 30.9
15:25 1021 30.15 850 25.1 15 58.9 35 -0.4 31.2
15:30 1021 30.15 850 25.1 14.6 58.2 36 -0.3 31.5
15:35 1021 30.15 850 25.1 14.5 58.1 36 -0.3 31.5
15:40 1020 30.12 850 25.1 14.4 58 36 -0.4 31.2
15:45 1020 30.12 850 25.1 14.3 57.7 36 -0.5 31.1
15:50 1020 30.12 850 25.1 14.3 57.7 37 -0.1 31.9
15:55 1020 30.12 850 25.1 13.8 56.8 40 0.4 32.7
16:00 1020 30.12 850 25.1 13.6 56.4 38 -0.3 31.5
16:05 1020 30.12 849 25.07 14 57.3 38 -0.1 31.8
16:10 1020 30.12 849 25.07 14.2 57.6 38 0.1 32.2
16:15 1020 30.12 849 25.07 14.1 57.4 39 0.6 33
16:20 1020 30.12 849 25.07 14.2 57.5 39 0.4 32.8
16:25 1020 30.12 849 25.07 14.1 57.4 39 0.3 32.6
16:30 1020 30.12 849 25.07 14.1 57.3 40 0.7 33.3
16:35 1020 30.12 849 25.07 14 57.1 40 0.6 33.2
16:40 1020 30.12 849 25.07 13.7 56.6 42 1 33.8
16:45 1020 30.12 849 25.07 13.4 56.2 42 0.8 33.5
16:50 1020 30.12 849 25.07 13.3 55.9 42 0.8 33.5
16:55 1020 30.12 849 25.07 12.9 55.2 41 0.2 32.3
17:00 1020 30.12 849 25.07 12.8 55 42 0.2 32.4
17:05 1020 30.12 849 25.07 12.7 54.9 42 0.1 32.2
17:10 1020 30.12 849 25.07 12.7 54.9 42 0.2 32.3
17:15 1020 30.12 849 25.07 12.8 55 42 0.2 32.3
17:20 1020 30.12 849 25.07 12.9 55.1 42 0.4 32.7
17:25 1020 30.12 849 25.07 12.9 55.1 42 0.3 32.5
17:30 1020 30.12 849 25.07 12.8 55 42 0.2 32.3
17:35 1020 30.12 849 25.07 12.7 54.9 42 0.2 32.3
17:40 1020 30.12 849 25.07 12.6 54.7 41 -0.1 31.8
17:45 1020 30.12 849 25.07 12.5 54.5 43 0.3 32.5
17:50 1020 30.12 849 25.07 12.4 54.3 43 0.3 32.6
17:55 1020 30.12 849 25.07 12.2 54 44 0.3 32.6
18:00 1020 30.12 849 25.07 12 53.7 44 0.2 32.3
18:05 1020 30.12 849 25.07 11.9 53.4 44 0.1 32.2
18:10 1020 30.12 849 25.07 11.7 53.1 45 0.2 32.3
18:15 1020 30.12 849 25.07 11.5 52.8 45 0.1 32.2
18:20 1020 30.12 849 25.07 11.4 52.6 46 0.2 32.4
18:25 1020 30.12 849 25.07 11.2 52.2 46 0.1 32.1
18:30 1020 30.12 849 25.07 11.1 51.9 47 0.1 32.2
18:35 1020 30.12 849 25.07 10.9 51.6 47 0.2 32.4
18:40 1020 30.12 849 25.07 10.8 51.4 48 0.1 32.2
18:45 1020 30.12 849 25.07 10.5 51 49 0.3 32.6
18:50 1020 30.12 849 25.07 10.3 50.5 50 0.4 32.7
18:55 1020 30.12 849 25.07 10 50.1 51 0.5 32.8
19:00 1020 30.12 849 25.07 9.8 49.7 52 0.4 32.8
19:05 1020 30.12 849 25.07 9.6 49.3 52 0.4 32.7
19:10 1020 30.12 849 25.07 9.6 49.2 52 0.3 32.6
19:15 1020 30.12 849 25.07 9.5 49.1 53 0.4 32.7
19:20 1020 30.12 849 25.07 9.4 48.9 53 0.2 32.4
19:25 1020 30.12 849 25.07 9.4 48.9 52 0.1 32.1
19:30 1020 30.12 849 25.07 9.5 49 52 0 32.1
19:35 1020 30.12 849 25.07 9.4 49 51 -0 31.9
19:40 1020 30.12 849 25.07 9.4 49 52 -0 32
19:45 1020 30.12 849 25.07 9.4 48.8 51 -0.1 31.8
19:50 1020 30.12 849 25.07 9.3 48.7 52 0 32.1
19:55 1020 30.12 849 25.07 9.2 48.5 52 -0.1 31.9
20:00 1020 30.12 849 25.07 9 48.2 53 -0 32
20:05 1020 30.12 849 25.07 8.9 48.1 53 -0.1 31.8
20:10 1020 30.12 849 25.07 8.9 48.1 53 -0.2 31.6
20:15 1020 30.12 849 25.07 9 48.1 53 -0.2 31.6
20:20 1020 30.12 849 25.07 8.9 48 53 -0.1 31.8
20:25 1020 30.12 849 25.07 8.8 47.8 54 -0 31.9
20:30 1020 30.12 849 25.07 8.7 47.6 54 -0.1 31.8
20:35 1020 30.12 849 25.07 8.7 47.6 54 -0.1 31.9
20:40 1020 30.12 849 25.07 8.6 47.5 54 -0 32
20:45 1020 30.12 849 25.07 8.6 47.4 55 -0 31.9
20:50 1020 30.12 849 25.07 8.5 47.4 55 -0.1 31.9
20:55 1020 30.12 849 25.07 8.5 47.2 55 -0.1 31.9
21:00 1020 30.12 849 25.07 8.4 47.1 55 -0 31.9
21:05 1020 30.12 849 25.07 8.3 47 56 0 32
21:10 1020 30.12 849 25.07 8.2 46.8 56 -0.1 31.9
21:15 1020 30.12 849 25.07 8.2 46.8 56 -0.1 31.8
21:20 1020 30.12 849 25.07 8.2 46.8 56 -0.1 31.7
21:25 1020 30.12 849 25.07 8.1 46.6 56 -0.1 31.8
21:30 1020 30.12 849 25.07 8.1 46.6 56 -0.2 31.6
21:35 1020 30.12 849 25.07 8 46.5 56 -0.3 31.5
21:40 1020 30.12 849 25.07 8.1 46.5 55 -0.5 31.1
21:45 1020 30.12 849 25.07 8.1 46.6 55 -0.4 31.3
21:50 1020 30.12 849 25.07 8.1 46.5 55 -0.4 31.3
21:55 1020 30.12 849 25.07 8.1 46.6 55 -0.4 31.3
22:00 1020 30.12 849 25.07 8 46.5 55 -0.4 31.3
22:05 1020 30.12 849 25.07 8 46.5 55 -0.4 31.4
22:10 1020 30.12 849 25.07 8 46.4 56 -0.3 31.5
22:15 1020 30.12 849 25.07 7.9 46.2 56 -0.2 31.6
22:20 1020 30.12 849 25.07 7.8 46.1 56 -0.3 31.5
22:25 1020 30.12 849 25.07 7.9 46.1 56 -0.2 31.6
22:30 1020 30.12 849 25.07 7.8 46 57 -0.3 31.5
22:35 1020 30.12 849 25.07 7.7 45.9 57 -0.2 31.6
22:40 1020 30.12 849 25.07 7.7 45.8 57 -0.3 31.5
22:45 1020 30.12 849 25.07 7.7 45.8 57 -0.3 31.5
22:50 1020 30.12 849 25.07 7.6 45.8 57 -0.3 31.5
22:55 1020 30.12 849 25.07 7.6 45.7 57 -0.3 31.4
23:00 1020 30.12 849 25.07 7.5 45.5 57 -0.3 31.4
23:05 1020 30.12 849 25.07 7.4 45.3 58 -0.3 31.5
23:10 1020 30.12 849 25.07 7.2 45 59 -0.2 31.6
23:15 1020 30.12 849 25.07 7.2 44.9 59 -0.2 31.6
23:20 1020 30.12 849 25.07 7.1 44.9 60 -0.2 31.7
23:25 1020 30.12 849 25.07 7.1 44.8 60 -0.1 31.8
23:30 1020 30.12 849 25.07 7 44.6 61 -0.1 31.9
23:35 1020 30.12 849 25.07 6.8 44.3 61 -0.1 31.9
23:40 1020 30.12 849 25.07 6.7 44 62 -0 32
23:45 1020 30.12 849 25.07 6.5 43.8 63 -0 32
23:50 1020 30.12 849 25.07 6.4 43.6 64 0 32.1
23:55 1020 30.12 849 25.07 6.3 43.4 64 0.1 32.1
24:00 1020 30.12 849 25.07 6.2 43.1 65 0.1 32.2